CheckWX is a tool to help pilots better visualize weather data.  It is not intended as a substitute for an official pre-flight weather briefing.

20:02:15 UTC

KEKN TAF
Elkins-Randolph Co-Jennings Randolph Field Airport
Elkins, West Virginia, USA
KEKN 261907Z 2619/2718 24008KT 6SM BR BKN015 OVC021 TEMPO 2620/2624 4SM -SN BR SCT009 FM270200 26007KT 1/2SM SN FG BKN006 OVC012 FM270600 27005KT P6SM OVC009

Jan-26@
19:00 UTC

Jan-26 @ 19:00 UTC

Jan-27@
02:00 UTC

Jan-27 @ 02:00 UTC

KEKN 261907Z 2619/2718 24008KT 6SM BR BKN015 OVC021
Wind
  • 240° at 8 KTS
Conditions
Mist
Cloud Levels
  • Broken at 1,500' AGL
  • Overcast at 2,100' AGL

Jan-26@
20:00 UTC

Jan-26 @ 20:00 UTC

Jan-27@
00:00 UTC

Jan-27 @ 00:00 UTC

TEMPO 2620/2624 4SM -SN BR SCT009

Temporary

Temporary Changes expected for less than half the time period

Conditions
Light Snow, Mist
Cloud Levels
  • Scattered at 900' AGL

Jan-27@
02:00 UTC

Jan-27 @ 02:00 UTC

Jan-27@
06:00 UTC

Jan-27 @ 06:00 UTC

FM270200 26007KT 1/2SM SN FG BKN006 OVC012

From

From Standard forecast or significant change

Wind
  • 260° at 7 KTS
Conditions
Snow, Fog
Cloud Levels
  • Broken at 600' AGL
  • Overcast at 1,200' AGL

Jan-27@
06:00 UTC

Jan-27 @ 06:00 UTC

Jan-27@
18:00 UTC

Jan-27 @ 18:00 UTC

FM270600 27005KT P6SM OVC009

From

From Standard forecast or significant change

Wind
  • 270° at 5 KTS
Cloud Levels
  • Overcast at 900' AGL